createdAt,value
2023-02-24T00:00:44.932Z,12.20
2023-02-24T00:03:12.322Z,12.20
2023-02-24T00:05:38.795Z,12.30
2023-02-24T00:08:05.290Z,12.20
2023-02-24T00:10:31.754Z,12.30
2023-02-24T00:12:58.226Z,12.30
2023-02-24T00:15:24.713Z,12.30
2023-02-24T00:17:51.184Z,12.40
2023-02-24T00:20:17.652Z,12.40
2023-02-24T00:22:44.121Z,12.40
2023-02-24T00:25:10.591Z,12.30
2023-02-24T00:27:37.075Z,12.40
2023-02-24T00:30:03.546Z,12.40
2023-02-24T00:32:30.236Z,12.40
2023-02-24T00:34:56.841Z,12.30
2023-02-24T00:37:23.323Z,12.30
2023-02-24T00:39:49.802Z,12.30
2023-02-24T00:42:16.269Z,12.30
2023-02-24T00:44:42.724Z,12.30
2023-02-24T00:47:09.195Z,12.30
2023-02-24T00:49:35.675Z,12.20
2023-02-24T00:52:02.181Z,12.30
2023-02-24T00:54:28.672Z,12.30
2023-02-24T00:56:55.194Z,12.30
2023-02-24T00:59:21.698Z,12.30
2023-02-24T01:01:48.212Z,12.20
2023-02-24T01:04:14.855Z,12.20
2023-02-24T01:06:41.386Z,12.10
2023-02-24T01:09:07.876Z,12.00
2023-02-24T01:11:34.393Z,12.10
2023-02-24T01:14:00.870Z,12.10
2023-02-24T01:16:27.349Z,12.00
2023-02-24T01:18:53.837Z,12.00
2023-02-24T01:21:20.673Z,12.10
2023-02-24T01:23:47.292Z,12.10
2023-02-24T01:26:13.764Z,12.10
2023-02-24T01:28:40.243Z,12.20
2023-02-24T01:31:06.774Z,12.10
2023-02-24T01:33:33.296Z,12.10
2023-02-24T01:35:59.767Z,12.10
2023-02-24T01:38:26.312Z,12.10
2023-02-24T01:40:52.789Z,12.10
2023-02-24T01:43:19.275Z,12.10
2023-02-24T01:45:45.754Z,12.00
2023-02-24T01:48:12.252Z,12.10
2023-02-24T01:50:38.726Z,12.00
2023-02-24T01:53:05.252Z,12.00
2023-02-24T01:55:31.723Z,12.00
2023-02-24T01:57:58.253Z,12.00
2023-02-24T02:00:24.734Z,12.00
2023-02-24T02:02:51.245Z,12.00
2023-02-24T02:05:17.730Z,12.00
2023-02-24T02:07:44.214Z,12.00
2023-02-24T02:10:10.690Z,12.00
2023-02-24T02:12:37.276Z,12.00
2023-02-24T02:15:03.822Z,12.00
2023-02-24T02:17:30.285Z,12.00
2023-02-24T02:19:56.767Z,11.90
2023-02-24T02:22:23.224Z,11.90
2023-02-24T02:24:49.683Z,12.00
2023-02-24T02:27:16.288Z,12.00
2023-02-24T02:29:42.798Z,12.00
2023-02-24T02:32:09.362Z,12.00
2023-02-24T02:34:35.892Z,12.00
2023-02-24T02:37:02.373Z,12.00
2023-02-24T02:39:28.884Z,12.00
2023-02-24T02:41:55.343Z,12.00
2023-02-24T02:44:21.847Z,12.00
2023-02-24T02:46:48.342Z,12.00
2023-02-24T02:49:14.850Z,12.00
2023-02-24T02:51:41.317Z,12.00
2023-02-24T02:54:07.791Z,12.00
2023-02-24T02:56:34.277Z,12.00
2023-02-24T02:59:00.771Z,12.00
2023-02-24T03:01:27.304Z,12.00
2023-02-24T03:03:53.826Z,12.00
2023-02-24T03:06:20.306Z,11.90
2023-02-24T03:08:46.758Z,12.00
2023-02-24T03:11:13.215Z,12.00
2023-02-24T03:13:39.699Z,12.00
2023-02-24T03:16:06.185Z,12.00
2023-02-24T03:18:32.645Z,12.00
2023-02-24T03:20:59.099Z,12.10
2023-02-24T03:23:25.582Z,12.00
2023-02-24T03:25:52.061Z,12.00
2023-02-24T03:28:18.518Z,12.00
2023-02-24T03:30:45.072Z,12.00
2023-02-24T03:33:11.561Z,12.00
2023-02-24T03:35:38.020Z,12.00
2023-02-24T03:38:04.505Z,12.00
2023-02-24T03:40:30.992Z,12.10
2023-02-24T03:42:57.468Z,12.00
2023-02-24T03:45:24.095Z,12.00
2023-02-24T03:47:50.568Z,12.00
2023-02-24T03:50:17.073Z,12.00
2023-02-24T03:52:43.560Z,12.00
2023-02-24T03:55:10.062Z,12.00
2023-02-24T03:57:36.538Z,12.00
2023-02-24T04:00:03.018Z,12.00
2023-02-24T04:02:29.540Z,12.00
2023-02-24T04:04:56.078Z,12.00
2023-02-24T04:07:22.576Z,12.00
2023-02-24T04:09:49.057Z,12.00
2023-02-24T04:12:15.598Z,12.00
2023-02-24T04:14:42.088Z,12.00
2023-02-24T04:17:08.570Z,12.10
2023-02-24T04:19:35.044Z,12.00
2023-02-24T04:22:01.536Z,12.00
2023-02-24T04:24:28.015Z,12.00
2023-02-24T04:26:54.497Z,12.00
2023-02-24T04:29:20.970Z,12.10
2023-02-24T04:31:47.648Z,12.00
2023-02-24T04:34:14.222Z,12.00
2023-02-24T04:36:40.687Z,12.00
2023-02-24T04:39:07.149Z,12.00
2023-02-24T04:41:33.610Z,12.00
2023-02-24T04:44:00.116Z,12.00
2023-02-24T04:46:26.647Z,11.90
2023-02-24T04:48:53.132Z,11.90
2023-02-24T04:51:19.860Z,12.00
2023-02-24T04:53:46.515Z,12.00
2023-02-24T04:56:12.983Z,11.90
2023-02-24T04:58:39.454Z,12.00
2023-02-24T05:01:05.919Z,11.90
2023-02-24T05:03:32.438Z,11.90
2023-02-24T05:05:58.933Z,11.90
2023-02-24T05:08:25.429Z,11.90
2023-02-24T05:10:51.913Z,11.90
2023-02-24T05:13:18.365Z,11.90
2023-02-24T05:15:44.878Z,11.90
2023-02-24T05:18:11.390Z,11.90
2023-02-24T05:20:37.884Z,12.00
2023-02-24T05:23:04.350Z,12.00
2023-02-24T05:25:30.821Z,12.00
2023-02-24T05:27:57.304Z,11.90
2023-02-24T05:30:23.816Z,11.90
2023-02-24T05:32:50.485Z,11.80
2023-02-24T05:35:16.999Z,11.90
2023-02-24T05:37:43.471Z,11.90
2023-02-24T05:40:09.940Z,11.80
2023-02-24T05:42:36.401Z,11.80
2023-02-24T05:45:02.980Z,11.80
2023-02-24T05:47:29.482Z,11.80
2023-02-24T05:49:55.949Z,11.80
2023-02-24T05:52:22.434Z,11.80
2023-02-24T05:54:48.892Z,11.80
2023-02-24T05:57:15.419Z,11.90
2023-02-24T05:59:41.940Z,11.90
2023-02-24T06:02:08.470Z,11.90
2023-02-24T06:04:34.940Z,11.90
2023-02-24T06:07:01.408Z,11.90
2023-02-24T06:09:27.889Z,11.90
2023-02-24T06:11:54.452Z,11.80
2023-02-24T06:14:20.929Z,11.80
2023-02-24T06:16:47.546Z,11.70
2023-02-24T06:19:14.495Z,11.80
2023-02-24T06:21:41.532Z,11.80
2023-02-24T06:24:08.037Z,11.80
2023-02-24T06:26:34.506Z,11.80
2023-02-24T06:29:00.985Z,11.80
2023-02-24T06:31:27.519Z,11.80
2023-02-24T06:33:54.046Z,11.80
2023-02-24T06:36:20.538Z,11.80
2023-02-24T06:38:47.070Z,11.70
2023-02-24T06:41:13.562Z,11.70
2023-02-24T06:43:40.059Z,11.70
2023-02-24T06:46:06.711Z,11.70
2023-02-24T06:48:33.239Z,11.70
2023-02-24T06:50:59.700Z,11.60
2023-02-24T06:53:26.180Z,11.60
2023-02-24T06:55:52.643Z,11.70
2023-02-24T06:58:19.129Z,11.70
2023-02-24T07:00:45.641Z,11.70
2023-02-24T07:03:12.117Z,11.70
2023-02-24T07:05:38.573Z,11.70
2023-02-24T07:08:05.046Z,11.70
2023-02-24T07:10:31.528Z,11.60
2023-02-24T07:12:58.004Z,11.60
2023-02-24T07:15:24.477Z,11.60
2023-02-24T07:17:50.956Z,11.60
2023-02-24T07:20:17.420Z,11.60
2023-02-24T07:22:43.909Z,11.60
2023-02-24T07:25:10.383Z,11.50
2023-02-24T07:27:36.876Z,11.50
2023-02-24T07:30:03.368Z,11.50
2023-02-24T07:32:29.882Z,11.50
2023-02-24T07:34:56.384Z,11.40
2023-02-24T07:37:22.888Z,11.40
2023-02-24T07:39:54.301Z,11.60
2023-02-24T07:42:20.800Z,11.60
2023-02-24T07:44:47.260Z,11.60
2023-02-24T07:47:18.206Z,11.70
2023-02-24T07:49:48.358Z,11.60
2023-02-24T07:52:14.874Z,11.60
2023-02-24T07:54:41.359Z,11.60
2023-02-24T07:57:07.840Z,11.50
2023-02-24T07:59:34.317Z,11.60
2023-02-24T08:02:00.801Z,11.60
2023-02-24T08:04:27.274Z,11.40
2023-02-24T08:06:53.756Z,11.40
2023-02-24T08:09:20.241Z,11.50
2023-02-24T08:11:46.697Z,11.50
2023-02-24T08:14:13.177Z,11.50
2023-02-24T08:16:39.660Z,11.40
2023-02-24T08:19:06.146Z,11.40
2023-02-24T08:21:32.606Z,11.40
2023-02-24T08:23:59.080Z,11.40
2023-02-24T08:26:30.566Z,11.40
2023-02-24T08:28:57.136Z,11.40
2023-02-24T08:31:24.077Z,11.40
2023-02-24T08:33:50.878Z,11.40
2023-02-24T08:36:17.343Z,11.40
2023-02-24T08:38:43.846Z,11.30
2023-02-24T08:41:10.309Z,11.40
2023-02-24T08:43:36.795Z,11.40
2023-02-24T08:46:03.259Z,11.40
2023-02-24T08:48:29.758Z,11.40
2023-02-24T08:50:56.239Z,11.40
2023-02-24T08:53:22.734Z,11.40
2023-02-24T08:55:49.300Z,11.30
2023-02-24T08:58:15.791Z,11.40
2023-02-24T09:00:42.348Z,11.40
2023-02-24T09:03:08.857Z,11.30
2023-02-24T09:05:35.326Z,11.30
2023-02-24T09:08:01.800Z,11.20
2023-02-24T09:10:28.276Z,11.20
2023-02-24T09:12:54.732Z,11.20
2023-02-24T09:15:21.202Z,11.20
2023-02-24T09:17:48.260Z,11.20
2023-02-24T09:20:14.723Z,11.20
2023-02-24T09:22:41.199Z,11.20
2023-02-24T09:25:07.659Z,11.30
2023-02-24T09:27:34.128Z,11.30
2023-02-24T09:30:00.628Z,11.20
2023-02-24T09:32:27.246Z,11.20
2023-02-24T09:34:53.759Z,11.20
2023-02-24T09:37:20.237Z,11.30
2023-02-24T09:39:46.724Z,11.30
2023-02-24T09:42:13.213Z,11.20
2023-02-24T09:44:39.675Z,11.20
2023-02-24T09:47:06.157Z,11.10
2023-02-24T09:49:32.664Z,11.10
2023-02-24T09:51:59.143Z,11.20
2023-02-24T09:54:25.651Z,11.20
2023-02-24T09:56:52.150Z,11.20
2023-02-24T09:59:18.648Z,11.10
2023-02-24T10:01:45.191Z,11.20
2023-02-24T10:04:20.774Z,11.20
2023-02-24T10:06:48.017Z,11.20
2023-02-24T10:09:14.489Z,11.20
2023-02-24T10:11:40.991Z,11.10
2023-02-24T10:14:07.516Z,11.20
2023-02-24T10:16:34.080Z,11.10
2023-02-24T10:19:00.557Z,11.00
2023-02-24T10:21:27.040Z,11.10
2023-02-24T10:23:54.912Z,11.00
2023-02-24T10:26:21.505Z,11.00
2023-02-24T10:28:47.999Z,11.10
2023-02-24T10:31:14.516Z,11.20
2023-02-24T10:33:41.038Z,11.10
2023-02-24T10:36:08.625Z,11.20
2023-02-24T10:38:35.103Z,11.20
2023-02-24T10:41:01.574Z,11.20
2023-02-24T10:43:28.078Z,11.20
2023-02-24T10:45:54.612Z,11.20
2023-02-24T10:48:24.495Z,11.00
2023-02-24T10:50:56.523Z,11.10
2023-02-24T10:53:23.058Z,11.10
2023-02-24T10:55:49.523Z,11.00
2023-02-24T10:58:16.029Z,11.00
2023-02-24T11:00:42.591Z,10.90
2023-02-24T11:03:09.092Z,11.00
2023-02-24T11:05:35.579Z,11.00
2023-02-24T11:08:02.052Z,11.00
2023-02-24T11:10:28.528Z,11.00
2023-02-24T11:13:00.968Z,11.10
2023-02-24T11:15:34.511Z,11.10
2023-02-24T11:18:01.109Z,11.10
2023-02-24T11:20:36.252Z,11.10
2023-02-24T11:23:08.878Z,11.00
2023-02-24T11:25:35.374Z,11.00
2023-02-24T11:28:01.842Z,11.00
2023-02-24T11:30:28.366Z,11.00
2023-02-24T11:32:54.871Z,11.00
2023-02-24T11:35:21.372Z,11.00
2023-02-24T11:37:47.859Z,11.00
2023-02-24T11:40:14.817Z,11.10
2023-02-24T11:42:41.300Z,11.00
2023-02-24T11:45:07.763Z,11.00
2023-02-24T11:47:34.260Z,10.90
2023-02-24T11:50:01.204Z,10.90
2023-02-24T11:52:28.629Z,11.00
2023-02-24T11:54:55.114Z,10.90
2023-02-24T11:57:21.604Z,11.00
2023-02-24T11:59:48.090Z,11.00
2023-02-24T12:02:14.560Z,11.00
2023-02-24T12:04:41.045Z,11.00
2023-02-24T12:07:07.518Z,11.00
2023-02-24T12:09:33.978Z,10.90
2023-02-24T12:12:00.463Z,11.00
2023-02-24T12:14:26.932Z,11.00
2023-02-24T12:16:53.400Z,11.00
2023-02-24T12:19:19.872Z,10.90
2023-02-24T12:21:46.340Z,10.90
2023-02-24T12:24:12.799Z,11.00
2023-02-24T12:26:39.278Z,10.90
2023-02-24T12:29:05.742Z,10.90
2023-02-24T12:31:32.354Z,10.90
2023-02-24T12:33:58.838Z,11.00
2023-02-24T12:36:25.317Z,10.90
2023-02-24T12:38:51.776Z,10.90
2023-02-24T12:41:18.294Z,10.90
2023-02-24T12:43:44.766Z,10.90
2023-02-24T12:46:11.377Z,10.90
2023-02-24T12:48:37.894Z,11.00
2023-02-24T12:51:04.396Z,11.00
2023-02-24T12:53:30.890Z,11.00
2023-02-24T12:55:57.368Z,11.00
2023-02-24T12:58:23.856Z,11.00
2023-02-24T13:00:50.359Z,11.00
2023-02-24T13:03:18.492Z,11.00
2023-02-24T13:05:45.078Z,10.90
2023-02-24T13:08:11.573Z,10.80
2023-02-24T13:10:38.064Z,11.00
2023-02-24T13:13:04.580Z,10.90
2023-02-24T13:15:31.070Z,10.90
2023-02-24T13:17:58.385Z,11.00
2023-02-24T13:20:24.933Z,10.90
2023-02-24T13:22:51.408Z,10.90
2023-02-24T13:25:17.865Z,10.80
2023-02-24T13:27:44.330Z,10.90
2023-02-24T13:30:10.859Z,11.00
2023-02-24T13:32:37.494Z,11.00
2023-02-24T13:35:04.093Z,10.90
2023-02-24T13:37:30.586Z,10.90
2023-02-24T13:39:57.282Z,11.00
2023-02-24T13:42:23.793Z,10.90
2023-02-24T13:44:50.260Z,11.00
2023-02-24T13:47:16.763Z,11.00
2023-02-24T13:49:43.266Z,11.00
2023-02-24T13:52:09.729Z,11.00
2023-02-24T13:54:36.208Z,11.10
2023-02-24T13:57:02.694Z,11.00
2023-02-24T13:59:29.282Z,10.90
2023-02-24T14:01:55.750Z,10.90
2023-02-24T14:04:22.217Z,11.00
2023-02-24T14:06:48.712Z,11.00
2023-02-24T14:09:15.174Z,11.10
2023-02-24T14:11:41.677Z,11.00
2023-02-24T14:14:08.147Z,11.00
2023-02-24T14:16:34.629Z,11.00
2023-02-24T14:19:01.117Z,11.00
2023-02-24T14:21:27.610Z,11.10
2023-02-24T14:23:54.077Z,11.00
2023-02-24T14:26:20.750Z,11.00
2023-02-24T14:28:47.509Z,11.00
2023-02-24T14:31:14.115Z,11.00
2023-02-24T14:33:40.855Z,11.10
2023-02-24T14:36:07.323Z,11.10
2023-02-24T14:38:33.814Z,11.00
2023-02-24T14:41:00.307Z,11.10
2023-02-24T14:43:26.801Z,11.10
2023-02-24T14:45:53.375Z,11.10
2023-02-24T14:48:19.904Z,11.00
2023-02-24T14:50:46.387Z,11.00
2023-02-24T14:53:12.868Z,11.00
2023-02-24T14:55:39.427Z,11.00
2023-02-24T14:58:05.986Z,11.00
2023-02-24T15:00:32.461Z,10.90
2023-02-24T15:02:58.968Z,11.00
2023-02-24T15:05:25.515Z,11.00
2023-02-24T15:07:52.156Z,11.00
2023-02-24T15:10:18.666Z,11.00
2023-02-24T15:12:45.136Z,11.10
2023-02-24T15:15:11.637Z,11.10
2023-02-24T15:17:38.086Z,11.10
2023-02-24T15:20:04.572Z,11.10
2023-02-24T15:22:31.131Z,11.00
2023-02-24T15:24:57.608Z,11.00
2023-02-24T15:27:24.063Z,11.00
2023-02-24T15:29:50.528Z,11.10
2023-02-24T15:32:17.084Z,11.00
2023-02-24T15:34:43.599Z,11.10
2023-02-24T15:37:10.180Z,11.10
2023-02-24T15:39:36.692Z,11.00
2023-02-24T15:42:03.168Z,11.10
2023-02-24T15:44:29.657Z,11.10
2023-02-24T15:46:56.168Z,11.10
2023-02-24T15:49:22.710Z,11.10
2023-02-24T15:51:49.225Z,11.00
2023-02-24T15:54:15.690Z,11.00
2023-02-24T15:56:42.211Z,11.00
2023-02-24T15:59:08.718Z,10.90
2023-02-24T16:01:35.198Z,11.00
2023-02-24T16:04:01.748Z,11.00
2023-02-24T16:06:28.240Z,11.00
2023-02-24T16:08:54.761Z,11.00
2023-02-24T16:11:21.234Z,11.00
2023-02-24T16:13:47.700Z,11.00
2023-02-24T16:16:14.240Z,11.10
2023-02-24T16:18:40.849Z,11.00
2023-02-24T16:21:07.350Z,11.00
2023-02-24T16:23:33.874Z,10.90
2023-02-24T16:26:00.352Z,10.90
2023-02-24T16:28:26.845Z,11.00
2023-02-24T16:30:53.375Z,11.00
2023-02-24T16:33:19.978Z,10.90
2023-02-24T16:35:46.515Z,11.00
2023-02-24T16:38:12.995Z,10.90
2023-02-24T16:40:39.505Z,11.00
2023-02-24T16:43:05.982Z,11.10
2023-02-24T16:45:32.471Z,11.10
2023-02-24T16:48:01.302Z,11.10
2023-02-24T16:50:28.776Z,11.10
2023-02-24T16:52:55.264Z,11.10
2023-02-24T16:55:21.758Z,11.00
2023-02-24T16:57:48.229Z,11.00
2023-02-24T17:00:14.706Z,11.00
2023-02-24T17:02:41.177Z,11.10
2023-02-24T17:05:07.653Z,11.00
2023-02-24T17:07:34.288Z,11.00
2023-02-24T17:10:00.824Z,11.00
2023-02-24T17:12:27.312Z,11.10
2023-02-24T17:14:53.800Z,11.10
2023-02-24T17:17:20.255Z,11.10
2023-02-24T17:19:46.743Z,11.10
2023-02-24T17:22:13.218Z,11.10
2023-02-24T17:24:39.720Z,11.10
2023-02-24T17:27:06.185Z,11.10
2023-02-24T17:29:32.674Z,11.10
2023-02-24T17:31:59.364Z,11.10
2023-02-24T17:34:25.949Z,11.10
2023-02-24T17:36:52.406Z,11.10
2023-02-24T17:39:18.876Z,11.00
2023-02-24T17:41:45.370Z,10.90
2023-02-24T17:44:11.848Z,11.00
2023-02-24T17:46:38.401Z,11.00
2023-02-24T17:49:04.952Z,10.90
2023-02-24T17:51:31.426Z,11.00
2023-02-24T17:53:57.893Z,11.00
2023-02-24T17:56:24.367Z,11.00
2023-02-24T17:58:50.823Z,11.00
2023-02-24T18:01:17.315Z,11.00
2023-02-24T18:03:43.837Z,11.00
2023-02-24T18:06:10.344Z,11.00
2023-02-24T18:08:36.820Z,11.00
2023-02-24T18:11:03.295Z,11.00
2023-02-24T18:13:29.751Z,11.00
2023-02-24T18:15:56.243Z,11.00
2023-02-24T18:18:22.760Z,10.90
2023-02-24T18:20:49.230Z,10.90
2023-02-24T18:23:15.697Z,10.90
2023-02-24T18:25:42.190Z,10.90
2023-02-24T18:28:08.678Z,11.00
2023-02-24T18:30:35.187Z,10.90
2023-02-24T18:33:01.908Z,11.00
2023-02-24T18:35:28.519Z,11.00
2023-02-24T18:37:55.013Z,11.00
2023-02-24T18:40:21.499Z,10.90
2023-02-24T18:42:47.961Z,11.00
2023-02-24T18:45:14.448Z,11.00
2023-02-24T18:47:40.972Z,11.00
2023-02-24T18:50:07.453Z,11.00
2023-02-24T18:52:33.922Z,10.90
2023-02-24T18:55:00.736Z,10.90
2023-02-24T18:57:27.168Z,11.00
2023-02-24T18:59:53.773Z,11.00
2023-02-24T19:02:20.326Z,11.00
2023-02-24T19:04:46.783Z,11.00
2023-02-24T19:07:13.246Z,10.90
2023-02-24T19:09:41.702Z,10.90
2023-02-24T19:12:08.468Z,10.90
2023-02-24T19:14:34.937Z,10.90
2023-02-24T19:17:01.423Z,10.90
2023-02-24T19:19:27.896Z,10.90
2023-02-24T19:21:54.366Z,10.90
2023-02-24T19:24:20.832Z,10.90
2023-02-24T19:26:47.324Z,10.90
2023-02-24T19:29:13.785Z,11.00
2023-02-24T19:31:40.529Z,11.00
2023-02-24T19:34:07.129Z,11.00
2023-02-24T19:36:33.593Z,11.00
2023-02-24T19:39:00.087Z,11.00
2023-02-24T19:41:26.544Z,11.00
2023-02-24T19:43:53.030Z,11.00
2023-02-24T19:46:19.604Z,11.00
2023-02-24T19:48:46.136Z,10.90
2023-02-24T19:51:12.608Z,10.90
2023-02-24T19:53:39.087Z,10.80
2023-02-24T19:56:05.560Z,10.80
2023-02-24T19:58:32.049Z,10.90
2023-02-24T20:01:00.834Z,10.90
2023-02-24T20:03:27.306Z,10.90
2023-02-24T20:05:53.760Z,10.90
2023-02-24T20:08:20.234Z,10.90
2023-02-24T20:10:46.692Z,10.90
2023-02-24T20:13:13.171Z,10.90
2023-02-24T20:15:39.655Z,10.90
2023-02-24T20:18:06.108Z,10.90
2023-02-24T20:20:32.567Z,10.80
2023-02-24T20:22:59.062Z,10.80
2023-02-24T20:25:25.526Z,10.80
2023-02-24T20:27:51.967Z,10.80
2023-02-24T20:30:18.446Z,10.80
2023-02-24T20:32:45.106Z,10.90
2023-02-24T20:35:11.687Z,10.80
2023-02-24T20:37:38.218Z,10.80
2023-02-24T20:40:04.692Z,10.80
2023-02-24T20:42:31.205Z,10.90
2023-02-24T20:44:57.680Z,10.80
2023-02-24T20:47:24.155Z,10.90
2023-02-24T20:49:50.670Z,10.90
2023-02-24T20:52:17.185Z,10.80
2023-02-24T20:54:43.674Z,10.90
2023-02-24T20:57:10.142Z,10.80
2023-02-24T20:59:36.652Z,10.80
2023-02-24T21:02:03.132Z,10.70
2023-02-24T21:04:29.630Z,10.80
2023-02-24T21:06:56.107Z,10.70
2023-02-24T21:09:22.585Z,10.80
2023-02-24T21:11:49.092Z,10.80
2023-02-24T21:14:18.925Z,10.90
2023-02-24T21:16:45.382Z,10.80
2023-02-24T21:19:11.857Z,10.80
2023-02-24T21:21:38.369Z,10.80
2023-02-24T21:24:04.817Z,10.70
2023-02-24T21:26:31.280Z,10.70
2023-02-24T21:28:58.162Z,10.80
2023-02-24T21:31:24.724Z,10.70
2023-02-24T21:33:51.289Z,10.80
2023-02-24T21:36:17.763Z,10.80
2023-02-24T21:38:44.244Z,10.80
2023-02-24T21:41:10.712Z,10.80
2023-02-24T21:43:37.218Z,10.80
2023-02-24T21:46:03.727Z,10.70
2023-02-24T21:48:30.270Z,10.70
2023-02-24T21:50:56.750Z,10.60
2023-02-24T21:53:23.212Z,10.70
2023-02-24T21:55:49.676Z,10.70
2023-02-24T21:58:16.156Z,10.70
2023-02-24T22:00:42.638Z,10.80
2023-02-24T22:03:09.170Z,10.90
2023-02-24T22:05:35.656Z,10.80
2023-02-24T22:08:02.141Z,10.70
2023-02-24T22:10:28.638Z,10.70
2023-02-24T22:12:55.118Z,10.70
2023-02-24T22:15:21.599Z,10.70
2023-02-24T22:17:48.071Z,10.60
2023-02-24T22:20:14.547Z,10.60
2023-02-24T22:22:41.012Z,10.60
2023-02-24T22:25:07.495Z,10.60
2023-02-24T22:27:33.973Z,10.70
2023-02-24T22:30:00.463Z,10.60
2023-02-24T22:32:27.049Z,10.70
2023-02-24T22:34:53.582Z,10.60
2023-02-24T22:37:20.116Z,10.60
2023-02-24T22:39:46.642Z,10.70
2023-02-24T22:42:13.111Z,10.70
2023-02-24T22:44:39.579Z,10.60
2023-02-24T22:47:06.112Z,10.70
2023-02-24T22:49:32.676Z,10.70
2023-02-24T22:51:59.140Z,10.70
2023-02-24T22:54:25.624Z,10.70
2023-02-24T22:56:52.101Z,10.70
2023-02-24T22:59:18.618Z,10.60
2023-02-24T23:01:45.102Z,10.70
2023-02-24T23:04:11.578Z,10.60
2023-02-24T23:06:38.062Z,10.70
2023-02-24T23:09:04.669Z,10.70
2023-02-24T23:11:31.188Z,10.60
2023-02-24T23:13:57.682Z,10.60
2023-02-24T23:16:24.520Z,10.60
2023-02-24T23:18:51.237Z,10.60
2023-02-24T23:21:17.733Z,10.50
2023-02-24T23:23:44.198Z,10.50
2023-02-24T23:26:10.673Z,10.60
2023-02-24T23:28:37.159Z,10.50
2023-02-24T23:31:03.723Z,10.40
2023-02-24T23:33:30.238Z,10.40
2023-02-24T23:35:56.759Z,10.50
2023-02-24T23:38:23.292Z,10.40
2023-02-24T23:40:50.909Z,10.50
2023-02-24T23:43:17.655Z,10.50
2023-02-24T23:45:44.185Z,10.40
2023-02-24T23:48:10.674Z,10.50
2023-02-24T23:50:37.163Z,10.50
2023-02-24T23:53:03.610Z,10.50
2023-02-24T23:55:30.092Z,10.50
2023-02-24T23:57:56.557Z,10.50
